createdAt,value
2023-02-11T00:02:55.949Z,11.90
2023-02-11T00:06:04.920Z,11.43
2023-02-11T00:09:08.534Z,11.75
2023-02-11T00:12:11.866Z,11.43
2023-02-11T00:15:15.403Z,13.82
2023-02-11T00:18:18.869Z,15.05
2023-02-11T00:21:24.813Z,12.47
2023-02-11T00:24:30.251Z,12.77
2023-02-11T00:27:33.604Z,14.13
2023-02-11T00:30:37.524Z,13.63
2023-02-11T00:33:41.081Z,13.55
2023-02-11T00:36:44.507Z,14.30
2023-02-11T00:39:48.052Z,14.88
2023-02-11T00:42:51.369Z,13.17
2023-02-11T00:45:54.865Z,12.77
2023-02-11T00:48:58.391Z,14.18
2023-02-11T00:52:01.871Z,13.20
2023-02-11T00:55:05.593Z,14.20
2023-02-11T00:58:09.489Z,14.82
2023-02-11T01:01:13.863Z,15.32
2023-02-11T01:04:19.120Z,15.20
2023-02-11T01:07:22.459Z,13.70
2023-02-11T01:10:26.401Z,14.82
2023-02-11T01:13:32.653Z,12.93
2023-02-11T01:16:36.141Z,15.95
2023-02-11T01:19:39.879Z,15.68
2023-02-11T01:22:43.498Z,14.67
2023-02-11T01:25:54.541Z,15.55
2023-02-11T01:29:00.135Z,15.10
2023-02-11T01:32:04.322Z,14.20
2023-02-11T01:35:08.220Z,13.75
2023-02-11T01:38:20.478Z,13.23
2023-02-11T01:41:24.009Z,13.27
2023-02-11T01:44:27.394Z,12.93
2023-02-11T01:47:30.772Z,14.55
2023-02-11T01:50:34.732Z,12.68
2023-02-11T01:53:58.561Z,12.97
2023-02-11T01:57:22.473Z,12.13
2023-02-11T02:00:31.962Z,13.35
2023-02-11T02:03:39.869Z,12.65
2023-02-11T02:07:08.842Z,11.73
2023-02-11T02:10:17.210Z,11.35
2023-02-11T02:13:20.870Z,11.50
2023-02-11T02:16:30.264Z,11.60
2023-02-11T02:19:50.589Z,14.48
2023-02-11T02:23:31.421Z,11.98
2023-02-11T02:27:24.070Z,13.40
2023-02-11T02:30:41.745Z,13.77
2023-02-11T02:33:47.912Z,16.05
2023-02-11T02:37:03.108Z,14.23
2023-02-11T02:40:15.498Z,14.73
2023-02-11T02:43:19.628Z,14.65
2023-02-11T02:46:29.835Z,14.10
2023-02-11T02:49:33.453Z,16.10
2023-02-11T02:52:53.851Z,15.70
2023-02-11T02:56:03.679Z,15.02
2023-02-11T02:59:27.706Z,13.43
2023-02-11T03:02:53.451Z,14.05
2023-02-11T03:06:34.297Z,12.02
2023-02-11T03:09:54.283Z,14.90
2023-02-11T03:12:58.819Z,13.88
2023-02-11T03:16:13.953Z,14.35
2023-02-11T03:19:24.327Z,14.10
2023-02-11T03:22:41.267Z,14.07
2023-02-11T03:26:10.068Z,14.70
2023-02-11T03:29:32.373Z,16.33
2023-02-11T03:32:48.048Z,15.10
2023-02-11T03:36:08.970Z,15.43
2023-02-11T03:39:16.371Z,18.75
2023-02-11T03:42:22.053Z,16.33
2023-02-11T03:45:27.748Z,16.10
2023-02-11T03:48:44.314Z,16.38
2023-02-11T03:51:51.372Z,16.63
2023-02-11T03:54:57.822Z,16.67
2023-02-11T03:58:01.453Z,15.48
2023-02-11T04:01:08.995Z,16.25
2023-02-11T04:04:12.649Z,17.40
2023-02-11T04:07:16.045Z,15.48
2023-02-11T04:10:19.670Z,17.08
2023-02-11T04:13:23.382Z,15.52
2023-02-11T04:16:27.330Z,15.80
2023-02-11T04:19:30.811Z,14.52
2023-02-11T04:22:34.444Z,15.13
2023-02-11T04:25:37.853Z,14.87
2023-02-11T04:28:41.264Z,14.48
2023-02-11T04:31:45.057Z,15.85
2023-02-11T04:34:48.547Z,16.00
2023-02-11T04:37:51.966Z,16.90
2023-02-11T04:40:55.562Z,14.88
2023-02-11T04:43:59.054Z,14.52
2023-02-11T04:47:02.552Z,16.00
2023-02-11T04:50:06.680Z,15.85
2023-02-11T04:53:10.188Z,15.00
2023-02-11T04:56:13.671Z,16.00
2023-02-11T04:59:17.477Z,13.98
2023-02-11T05:02:20.979Z,15.32
2023-02-11T05:05:24.520Z,15.37
2023-02-11T05:08:28.172Z,13.80
2023-02-11T05:11:31.825Z,16.08
2023-02-11T05:14:35.287Z,14.70
2023-02-11T05:17:38.804Z,17.17
2023-02-11T05:20:43.149Z,15.95
2023-02-11T05:23:47.352Z,18.42
2023-02-11T05:26:50.738Z,16.53
2023-02-11T05:29:54.146Z,16.90
2023-02-11T05:32:57.688Z,17.75
2023-02-11T05:36:07.438Z,18.70
2023-02-11T05:39:10.852Z,19.73
2023-02-11T05:42:14.629Z,23.17
2023-02-11T05:45:18.126Z,21.17
2023-02-11T05:48:21.601Z,22.65
2023-02-11T05:51:25.406Z,19.88
2023-02-11T05:54:28.845Z,14.40
2023-02-11T05:57:32.286Z,15.43
2023-02-11T06:00:36.440Z,16.98
2023-02-11T06:03:40.021Z,15.20
2023-02-11T06:06:43.468Z,15.37
2023-02-11T06:09:46.898Z,16.90
2023-02-11T06:12:50.452Z,16.40
2023-02-11T06:15:58.461Z,17.60
2023-02-11T06:19:01.985Z,17.65
2023-02-11T06:22:05.401Z,19.80
2023-02-11T06:25:09.051Z,17.95
2023-02-11T06:28:12.677Z,16.63
2023-02-11T06:31:16.576Z,19.10
2023-02-11T06:34:20.047Z,19.35
2023-02-11T06:37:23.707Z,20.60
2023-02-11T06:40:27.194Z,20.08
2023-02-11T06:43:30.677Z,19.02
2023-02-11T06:46:34.179Z,18.65
2023-02-11T06:49:37.769Z,17.50
2023-02-11T06:52:41.374Z,17.58
2023-02-11T06:55:44.776Z,19.13
2023-02-11T06:58:48.864Z,19.17
2023-02-11T07:01:52.545Z,19.02
2023-02-11T07:04:56.070Z,18.70
2023-02-11T07:07:59.496Z,19.23
2023-02-11T07:11:08.812Z,19.60
2023-02-11T07:14:13.538Z,20.67
2023-02-11T07:17:17.027Z,19.90
2023-02-11T07:20:20.549Z,19.60
2023-02-11T07:23:23.988Z,19.45
2023-02-11T07:26:29.035Z,20.48
2023-02-11T07:29:33.301Z,22.60
2023-02-11T07:32:37.021Z,19.00
2023-02-11T07:35:42.599Z,21.15
2023-02-11T07:38:46.373Z,18.87
2023-02-11T07:41:49.885Z,17.85
2023-02-11T07:44:54.394Z,14.88
2023-02-11T07:47:57.947Z,16.10
2023-02-11T07:51:16.466Z,16.17
2023-02-11T07:54:19.899Z,16.05
2023-02-11T07:57:23.295Z,16.70
2023-02-11T08:00:26.781Z,15.57
2023-02-11T08:03:30.476Z,16.05
2023-02-11T08:06:35.834Z,16.40
2023-02-11T08:09:39.309Z,17.77
2023-02-11T08:12:42.898Z,15.50
2023-02-11T08:15:46.295Z,16.15
2023-02-11T08:18:50.894Z,16.15
2023-02-11T08:21:57.089Z,15.75
2023-02-11T08:25:00.645Z,15.93
2023-02-11T08:28:04.146Z,14.55
2023-02-11T08:31:13.239Z,16.43
2023-02-11T08:34:19.210Z,18.27
2023-02-11T08:37:22.962Z,17.42
2023-02-11T08:40:26.439Z,17.67
2023-02-11T08:43:29.845Z,15.63
2023-02-11T08:46:33.356Z,16.17
2023-02-11T08:49:37.617Z,14.65
2023-02-11T08:52:41.176Z,12.70
2023-02-11T08:55:55.081Z,15.43
2023-02-11T08:58:58.539Z,15.93
2023-02-11T09:02:02.124Z,15.23
2023-02-11T09:05:06.157Z,17.33
2023-02-11T09:08:09.641Z,14.97
2023-02-11T09:11:13.994Z,15.80
2023-02-11T09:14:20.500Z,17.17
2023-02-11T09:17:24.179Z,18.67
2023-02-11T09:20:28.106Z,16.23
2023-02-11T09:23:34.421Z,16.08
2023-02-11T09:26:38.544Z,17.35
2023-02-11T09:29:41.952Z,16.38
2023-02-11T09:32:45.537Z,16.37
2023-02-11T09:35:49.490Z,13.68
2023-02-11T09:38:53.571Z,16.10
2023-02-11T09:42:28.132Z,15.05
2023-02-11T09:45:32.521Z,15.07
2023-02-11T09:48:42.976Z,14.95
2023-02-11T09:51:57.275Z,15.30
2023-02-11T09:55:06.413Z,14.75
2023-02-11T09:58:37.344Z,16.30
2023-02-11T10:01:51.147Z,14.63
2023-02-11T10:05:33.335Z,15.43
2023-02-11T10:09:07.417Z,14.85
2023-02-11T10:12:43.396Z,11.30
2023-02-11T10:15:54.053Z,21.33
2023-02-11T10:19:14.116Z,17.38
2023-02-11T10:22:28.585Z,15.98
2023-02-11T10:25:37.126Z,16.70
2023-02-11T10:28:43.446Z,13.35
2023-02-11T10:31:47.806Z,15.57
2023-02-11T10:34:52.610Z,15.07
2023-02-11T10:37:56.519Z,16.33
2023-02-11T10:41:00.033Z,15.25
2023-02-11T10:44:06.193Z,15.60
2023-02-11T10:47:22.897Z,15.10
2023-02-11T10:50:34.954Z,16.13
2023-02-11T10:53:38.469Z,17.13
2023-02-11T10:56:47.218Z,17.23
2023-02-11T10:59:57.182Z,18.27
2023-02-11T11:03:03.074Z,19.00
2023-02-11T11:06:09.039Z,19.52
2023-02-11T11:09:30.086Z,24.88
2023-02-11T11:12:36.611Z,18.38
2023-02-11T11:15:40.045Z,19.45
2023-02-11T11:18:49.312Z,18.53
2023-02-11T11:21:54.992Z,17.58
2023-02-11T11:25:01.658Z,19.13
2023-02-11T11:28:05.379Z,19.02
2023-02-11T11:31:19.457Z,21.52
2023-02-11T11:34:30.038Z,16.93
2023-02-11T11:37:36.672Z,19.33
2023-02-11T11:40:40.270Z,19.70
2023-02-11T11:44:23.728Z,19.92
2023-02-11T11:48:09.258Z,24.80
2023-02-11T11:51:13.364Z,21.13
2023-02-11T11:54:20.122Z,21.90
2023-02-11T11:57:29.749Z,22.13
2023-02-11T12:00:48.660Z,20.92
2023-02-11T12:03:52.136Z,21.08
2023-02-11T12:07:18.597Z,21.33
2023-02-11T12:10:43.312Z,18.10
2023-02-11T12:14:03.737Z,18.50
2023-02-11T12:17:31.312Z,20.45
2023-02-11T12:20:34.793Z,20.33
2023-02-11T12:24:18.442Z,19.10
2023-02-11T12:27:44.456Z,18.50
2023-02-11T12:30:53.864Z,20.13
2023-02-11T12:34:12.468Z,19.48
2023-02-11T12:37:27.700Z,25.27
2023-02-11T12:40:47.104Z,22.40
2023-02-11T12:43:51.114Z,18.90
2023-02-11T12:47:09.056Z,19.23
2023-02-11T12:50:30.192Z,19.05
2023-02-11T12:53:47.347Z,19.67
2023-02-11T12:57:11.778Z,20.80
2023-02-11T13:00:25.019Z,20.10
2023-02-11T13:03:36.127Z,19.13
2023-02-11T13:06:49.283Z,18.40
2023-02-11T13:09:59.925Z,17.85
2023-02-11T13:13:17.050Z,19.50
2023-02-11T13:16:44.214Z,18.15
2023-02-11T13:19:59.517Z,18.60
2023-02-11T13:23:27.346Z,20.80
2023-02-11T13:27:15.798Z,20.35
2023-02-11T13:30:24.403Z,18.53
2023-02-11T13:33:44.670Z,21.92
2023-02-11T13:36:55.878Z,20.25
2023-02-11T13:40:06.136Z,19.77
2023-02-11T13:43:24.095Z,17.77
2023-02-11T13:46:49.226Z,20.97
2023-02-11T13:49:54.701Z,19.38
2023-02-11T13:53:01.014Z,18.88
2023-02-11T13:56:23.171Z,22.15
2023-02-11T13:59:33.027Z,18.30
2023-02-11T14:02:56.587Z,21.67
2023-02-11T14:06:27.453Z,21.67
2023-02-11T14:09:37.816Z,18.65
2023-02-11T14:12:41.401Z,20.15
2023-02-11T14:15:47.376Z,19.73
2023-02-11T14:18:52.121Z,19.80
2023-02-11T14:22:04.286Z,20.63
2023-02-11T14:25:24.955Z,20.08
2023-02-11T14:28:34.413Z,20.05
2023-02-11T14:31:49.450Z,19.95
2023-02-11T14:35:22.484Z,21.37
2023-02-11T14:38:38.402Z,19.23
2023-02-11T14:41:46.239Z,19.10
2023-02-11T14:44:52.470Z,18.95
2023-02-11T14:48:02.887Z,19.85
2023-02-11T14:51:18.684Z,19.77
2023-02-11T14:54:27.032Z,19.95
2023-02-11T14:57:30.927Z,23.60
2023-02-11T15:00:34.610Z,24.50
2023-02-11T15:03:43.431Z,25.45
2023-02-11T15:06:51.301Z,31.13
2023-02-11T15:09:55.235Z,24.73
2023-02-11T15:13:00.567Z,21.55
2023-02-11T15:16:10.136Z,22.70
2023-02-11T15:19:34.268Z,21.80
2023-02-11T15:22:39.377Z,23.10
2023-02-11T15:25:51.492Z,25.00
2023-02-11T15:28:56.139Z,23.55
2023-02-11T15:32:19.938Z,28.95
2023-02-11T15:35:23.553Z,38.05
2023-02-11T15:38:28.237Z,40.63
2023-02-11T15:41:38.871Z,34.15
2023-02-11T15:44:43.610Z,26.25
2023-02-11T15:47:53.262Z,26.92
2023-02-11T15:51:00.392Z,32.88
2023-02-11T15:54:18.919Z,31.30
2023-02-11T15:57:23.485Z,27.35
2023-02-11T16:00:38.501Z,29.05
2023-02-11T16:03:43.640Z,31.92
2023-02-11T16:06:48.428Z,27.67
2023-02-11T16:09:58.690Z,25.70
2023-02-11T16:13:17.292Z,22.70
2023-02-11T16:16:35.309Z,21.17
2023-02-11T16:19:48.712Z,20.67
2023-02-11T16:22:52.789Z,19.25
2023-02-11T16:26:05.874Z,18.83
2023-02-11T16:29:15.785Z,26.48
2023-02-11T16:32:25.902Z,39.10
2023-02-11T16:35:29.390Z,23.30
2023-02-11T16:38:33.504Z,17.90
2023-02-11T16:41:37.196Z,19.35
2023-02-11T16:44:41.171Z,18.10
2023-02-11T16:47:44.977Z,18.45
2023-02-11T16:50:53.263Z,18.55
2023-02-11T16:53:57.040Z,18.53
2023-02-11T16:57:01.942Z,19.30
2023-02-11T17:00:07.136Z,17.58
2023-02-11T17:03:25.324Z,19.33
2023-02-11T17:06:30.259Z,17.98
2023-02-11T17:09:34.241Z,20.40
2023-02-11T17:12:37.636Z,24.73
2023-02-11T17:15:41.306Z,23.63
2023-02-11T17:18:45.347Z,23.27
2023-02-11T17:21:52.048Z,22.85
2023-02-11T17:24:58.944Z,21.50
2023-02-11T17:28:02.791Z,20.60
2023-02-11T17:31:10.208Z,22.05
2023-02-11T17:34:14.013Z,19.77
2023-02-11T17:37:17.634Z,26.37
2023-02-11T17:40:21.393Z,23.85
2023-02-11T17:43:25.246Z,25.35
2023-02-11T17:46:29.425Z,23.33
2023-02-11T17:49:33.285Z,26.48
2023-02-11T17:52:37.908Z,20.53
2023-02-11T17:55:41.811Z,20.65
2023-02-11T17:58:45.719Z,18.38
2023-02-11T18:01:49.569Z,18.08
2023-02-11T18:04:55.621Z,19.93
2023-02-11T18:07:59.468Z,19.48
2023-02-11T18:11:03.812Z,19.25
2023-02-11T18:14:08.653Z,19.73
2023-02-11T18:17:12.163Z,19.57
2023-02-11T18:20:15.797Z,19.73
2023-02-11T18:23:19.632Z,20.85
2023-02-11T18:26:26.446Z,20.83
2023-02-11T18:29:30.134Z,20.35
2023-02-11T18:32:34.012Z,20.10
2023-02-11T18:35:41.275Z,21.35
2023-02-11T18:38:45.496Z,20.30
2023-02-11T18:41:54.006Z,20.27
2023-02-11T18:44:57.519Z,20.35
2023-02-11T18:48:03.790Z,22.25
2023-02-11T18:51:16.041Z,21.52
2023-02-11T18:54:19.996Z,23.63
2023-02-11T18:57:24.044Z,25.30
2023-02-11T19:00:27.878Z,27.25
2023-02-11T19:03:31.979Z,26.73
2023-02-11T19:06:37.668Z,25.17
2023-02-11T19:09:41.646Z,25.13
2023-02-11T19:12:45.509Z,23.17
2023-02-11T19:15:49.820Z,22.65
2023-02-11T19:18:53.749Z,22.15
2023-02-11T19:21:58.427Z,23.37
2023-02-11T19:25:02.024Z,23.30
2023-02-11T19:28:05.894Z,25.17
2023-02-11T19:31:10.340Z,24.77
2023-02-11T19:34:16.285Z,23.33
2023-02-11T19:37:20.352Z,22.50
2023-02-11T19:40:24.016Z,24.35
2023-02-11T19:43:29.209Z,24.80
2023-02-11T19:46:37.330Z,23.93
2023-02-11T19:49:41.380Z,23.92
2023-02-11T19:52:44.961Z,23.88
2023-02-11T19:55:50.051Z,23.27
2023-02-11T19:58:53.628Z,23.80
2023-02-11T20:01:57.801Z,22.35
2023-02-11T20:05:02.074Z,23.77
2023-02-11T20:08:05.739Z,25.00
2023-02-11T20:11:12.458Z,24.10
2023-02-11T20:14:16.001Z,23.73
2023-02-11T20:17:19.673Z,22.88
2023-02-11T20:20:23.427Z,24.35
2023-02-11T20:23:27.550Z,22.83
2023-02-11T20:26:33.541Z,25.00
2023-02-11T20:29:37.925Z,23.90
2023-02-11T20:32:41.888Z,27.25
2023-02-11T20:35:45.493Z,25.17
2023-02-11T20:38:50.395Z,26.27
2023-02-11T20:41:54.563Z,24.10
2023-02-11T20:44:58.272Z,26.40
2023-02-11T20:48:02.007Z,23.42
2023-02-11T20:51:07.883Z,23.90
2023-02-11T20:54:19.274Z,23.17
2023-02-11T20:57:22.775Z,22.80
2023-02-11T21:00:27.149Z,24.33
2023-02-11T21:03:30.526Z,26.63
2023-02-11T21:06:43.122Z,39.42
2023-02-11T21:09:46.556Z,35.80
2023-02-11T21:12:50.273Z,37.17
2023-02-11T21:15:56.051Z,35.40
2023-02-11T21:19:00.750Z,35.63
2023-02-11T21:22:04.363Z,35.50
2023-02-11T21:25:08.667Z,35.67
2023-02-11T21:28:13.690Z,32.45
2023-02-11T21:31:21.967Z,38.10
2023-02-11T21:34:25.329Z,31.73
2023-02-11T21:37:28.952Z,41.22
2023-02-11T21:40:32.342Z,36.40
2023-02-11T21:43:36.336Z,27.90
2023-02-11T21:46:40.049Z,27.88
2023-02-11T21:49:43.613Z,24.95
2023-02-11T21:52:47.248Z,26.17
2023-02-11T21:55:51.393Z,25.52
2023-02-11T21:58:56.709Z,24.45
2023-02-11T22:02:00.506Z,25.58
2023-02-11T22:05:04.150Z,25.37
2023-02-11T22:08:07.813Z,26.17
2023-02-11T22:11:12.877Z,26.63
2023-02-11T22:14:17.161Z,26.98
2023-02-11T22:17:20.567Z,26.80
2023-02-11T22:20:24.245Z,30.43
2023-02-11T22:23:28.521Z,31.95
2023-02-11T22:26:31.988Z,31.52
2023-02-11T22:29:35.598Z,29.23
2023-02-11T22:32:39.061Z,32.38
2023-02-11T22:35:42.366Z,33.90
2023-02-11T22:38:46.043Z,31.23
2023-02-11T22:41:49.939Z,30.33
2023-02-11T22:44:53.292Z,29.95
2023-02-11T22:47:57.053Z,29.58
2023-02-11T22:51:15.366Z,27.97
2023-02-11T22:54:20.380Z,26.08
2023-02-11T22:57:23.816Z,27.50
2023-02-11T23:00:30.509Z,29.10
2023-02-11T23:03:34.927Z,27.97
2023-02-11T23:06:38.334Z,28.63
2023-02-11T23:09:41.880Z,28.15
2023-02-11T23:12:45.281Z,28.63
2023-02-11T23:15:48.777Z,31.50
2023-02-11T23:18:53.337Z,36.83
2023-02-11T23:21:56.717Z,46.00
2023-02-11T23:25:00.149Z,37.00
2023-02-11T23:28:03.701Z,35.90
2023-02-11T23:31:20.735Z,36.75
2023-02-11T23:34:25.614Z,35.70
2023-02-11T23:37:28.985Z,35.75
2023-02-11T23:40:32.460Z,41.05
2023-02-11T23:43:36.037Z,44.50
2023-02-11T23:46:39.682Z,41.53
2023-02-11T23:49:43.512Z,42.40
2023-02-11T23:52:47.106Z,45.35
2023-02-11T23:55:50.500Z,40.00
2023-02-11T23:58:56.166Z,38.05
